sensor_id;sensor_type;location;lat;lon;timestamp;pressure;altitude;pressure_sealevel;temperature;humidity
14295;BME280;7231;59.370;18.016;2023-02-19T00:01:46;99872.22;;;-0.41;67.88
14295;BME280;7231;59.370;18.016;2023-02-19T00:04:16;99816.19;;;-0.76;67.70
14295;BME280;7231;59.370;18.016;2023-02-19T00:06:47;99876.31;;;-0.45;67.67
14295;BME280;7231;59.370;18.016;2023-02-19T00:09:17;99870.19;;;-0.47;67.85
14295;BME280;7231;59.370;18.016;2023-02-19T00:11:46;99833.56;;;-0.72;67.72
14295;BME280;7231;59.370;18.016;2023-02-19T00:14:15;99846.50;;;-0.56;67.43
14295;BME280;7231;59.370;18.016;2023-02-19T00:16:44;99842.78;;;-0.61;67.72
14295;BME280;7231;59.370;18.016;2023-02-19T00:19:15;99865.50;;;-0.54;68.15
14295;BME280;7231;59.370;18.016;2023-02-19T00:21:43;99859.28;;;-0.57;68.03
14295;BME280;7231;59.370;18.016;2023-02-19T00:24:13;99861.34;;;-0.67;67.76
14295;BME280;7231;59.370;18.016;2023-02-19T00:26:42;99785.91;;;-1.11;68.09
14295;BME280;7231;59.370;18.016;2023-02-19T00:29:12;99857.63;;;-0.72;67.76
14295;BME280;7231;59.370;18.016;2023-02-19T00:31:41;99876.16;;;-0.62;68.25
14295;BME280;7231;59.370;18.016;2023-02-19T00:34:10;99864.28;;;-0.75;68.14
14295;BME280;7231;59.370;18.016;2023-02-19T00:36:40;99848.78;;;-0.91;67.92
14295;BME280;7231;59.370;18.016;2023-02-19T00:39:13;99881.13;;;-0.66;67.94
14295;BME280;7231;59.370;18.016;2023-02-19T00:41:42;99878.47;;;-0.67;67.98
14295;BME280;7231;59.370;18.016;2023-02-19T00:44:11;99864.47;;;-0.72;67.93
14295;BME280;7231;59.370;18.016;2023-02-19T00:46:40;99871.47;;;-0.70;68.19
14295;BME280;7231;59.370;18.016;2023-02-19T00:49:14;99878.31;;;-0.70;68.16
14295;BME280;7231;59.370;18.016;2023-02-19T00:51:43;99875.56;;;-0.73;68.07
14295;BME280;7231;59.370;18.016;2023-02-19T00:54:12;99869.09;;;-0.81;68.26
14295;BME280;7231;59.370;18.016;2023-02-19T00:56:41;99893.31;;;-0.78;68.39
14295;BME280;7231;59.370;18.016;2023-02-19T00:59:09;99836.53;;;-1.10;68.25
14295;BME280;7231;59.370;18.016;2023-02-19T01:01:37;99845.59;;;-1.02;68.04
14295;BME280;7231;59.370;18.016;2023-02-19T01:04:05;99883.09;;;-0.76;67.82
14295;BME280;7231;59.370;18.016;2023-02-19T01:06:34;99881.31;;;-0.77;67.87
14295;BME280;7231;59.370;18.016;2023-02-19T01:09:03;99833.97;;;-1.10;68.07
14295;BME280;7231;59.370;18.016;2023-02-19T01:11:32;99882.94;;;-0.79;67.94
14295;BME280;7231;59.370;18.016;2023-02-19T01:14:01;99874.84;;;-0.85;68.19
14295;BME280;7231;59.370;18.016;2023-02-19T01:16:29;99875.66;;;-0.86;67.94
14295;BME280;7231;59.370;18.016;2023-02-19T01:18:57;99832.53;;;-1.20;68.12
14295;BME280;7231;59.370;18.016;2023-02-19T01:21:27;99889.22;;;-0.89;68.25
14295;BME280;7231;59.370;18.016;2023-02-19T01:23:56;99875.47;;;-0.89;67.97
14295;BME280;7231;59.370;18.016;2023-02-19T01:26:26;99878.06;;;-0.89;68.18
14295;BME280;7231;59.370;18.016;2023-02-19T01:28:56;99881.44;;;-0.90;68.01
14295;BME280;7231;59.370;18.016;2023-02-19T01:31:24;99860.94;;;-1.04;67.92
14295;BME280;7231;59.370;18.016;2023-02-19T01:33:55;99878.59;;;-0.95;67.87
14295;BME280;7231;59.370;18.016;2023-02-19T01:36:25;99796.19;;;-1.41;67.78
14295;BME280;7231;59.370;18.016;2023-02-19T01:38:53;99874.25;;;-0.96;67.91
14295;BME280;7231;59.370;18.016;2023-02-19T01:41:22;99883.63;;;-0.96;68.10
14295;BME280;7231;59.370;18.016;2023-02-19T01:43:57;99780.75;;;-1.55;67.82
14295;BME280;7231;59.370;18.016;2023-02-19T01:46:27;99870.78;;;-0.96;67.67
14295;BME280;7231;59.370;18.016;2023-02-19T01:48:57;99866.97;;;-1.03;67.81
14295;BME280;7231;59.370;18.016;2023-02-19T01:51:27;99867.31;;;-0.97;67.61
14295;BME280;7231;59.370;18.016;2023-02-19T01:53:59;99851.09;;;-1.11;67.63
14295;BME280;7231;59.370;18.016;2023-02-19T01:56:30;99835.03;;;-1.21;67.61
14295;BME280;7231;59.370;18.016;2023-02-19T01:59:01;99885.31;;;-0.97;67.50
14295;BME280;7231;59.370;18.016;2023-02-19T02:01:29;99835.75;;;-1.24;67.79
14295;BME280;7231;59.370;18.016;2023-02-19T02:03:57;99864.84;;;-1.10;67.58
14295;BME280;7231;59.370;18.016;2023-02-19T02:06:30;99880.00;;;-1.00;67.65
14295;BME280;7231;59.370;18.016;2023-02-19T02:08:59;99874.41;;;-1.08;67.60
14295;BME280;7231;59.370;18.016;2023-02-19T02:11:49;99881.69;;;-1.01;67.39
14295;BME280;7231;59.370;18.016;2023-02-19T02:14:21;99870.94;;;-1.08;67.29
14295;BME280;7231;59.370;18.016;2023-02-19T02:16:54;99885.69;;;-1.06;67.56
14295;BME280;7231;59.370;18.016;2023-02-19T02:19:31;99877.97;;;-1.06;67.60
14295;BME280;7231;59.370;18.016;2023-02-19T02:22:13;99876.28;;;-1.05;67.26
14295;BME280;7231;59.370;18.016;2023-02-19T02:27:53;99858.63;;;-1.14;67.18
14295;BME280;7231;59.370;18.016;2023-02-19T02:30:32;99878.84;;;-1.05;67.29
14295;BME280;7231;59.370;18.016;2023-02-19T02:33:11;99864.31;;;-1.05;67.11
14295;BME280;7231;59.370;18.016;2023-02-19T02:35:44;99876.38;;;-1.04;67.01
14295;BME280;7231;59.370;18.016;2023-02-19T02:38:15;99860.94;;;-1.04;66.93
14295;BME280;7231;59.370;18.016;2023-02-19T02:40:45;99856.41;;;-1.08;66.70
14295;BME280;7231;59.370;18.016;2023-02-19T02:43:14;99866.88;;;-1.05;66.70
14295;BME280;7231;59.370;18.016;2023-02-19T02:45:43;99858.97;;;-1.08;66.88
14295;BME280;7231;59.370;18.016;2023-02-19T02:48:19;99858.97;;;-1.08;66.93
14295;BME280;7231;59.370;18.016;2023-02-19T02:50:51;99860.56;;;-1.10;66.77
14295;BME280;7231;59.370;18.016;2023-02-19T02:53:23;99846.81;;;-1.25;66.58
14295;BME280;7231;59.370;18.016;2023-02-19T02:56:13;99829.69;;;-1.39;66.91
14295;BME280;7231;59.370;18.016;2023-02-19T02:58:42;99794.59;;;-1.53;66.85
14295;BME280;7231;59.370;18.016;2023-02-19T03:01:16;99867.31;;;-1.12;67.00
14295;BME280;7231;59.370;18.016;2023-02-19T03:04:05;99867.31;;;-1.12;67.01
14295;BME280;7231;59.370;18.016;2023-02-19T03:06:36;99848.59;;;-1.24;66.72
14295;BME280;7231;59.370;18.016;2023-02-19T03:09:09;99873.06;;;-1.16;67.05
14295;BME280;7231;59.370;18.016;2023-02-19T03:11:40;99876.34;;;-1.18;66.97
14295;BME280;7231;59.370;18.016;2023-02-19T03:14:32;99875.56;;;-1.17;66.83
14295;BME280;7231;59.370;18.016;2023-02-19T03:17:26;99879.03;;;-1.17;66.71
14295;BME280;7231;59.370;18.016;2023-02-19T03:20:15;99877.34;;;-1.16;66.72
14295;BME280;7231;59.370;18.016;2023-02-19T03:22:47;99879.72;;;-1.19;66.54
14295;BME280;7231;59.370;18.016;2023-02-19T03:25:19;99867.75;;;-1.34;66.25
14295;BME280;7231;59.370;18.016;2023-02-19T03:28:07;99890.00;;;-1.19;66.64
14295;BME280;7231;59.370;18.016;2023-02-19T03:30:40;99868.16;;;-1.41;66.72
14295;BME280;7231;59.370;18.016;2023-02-19T03:33:13;99895.69;;;-1.25;66.83
14295;BME280;7231;59.370;18.016;2023-02-19T03:35:45;99797.09;;;-1.83;66.95
14295;BME280;7231;59.370;18.016;2023-02-19T03:38:16;99864.97;;;-1.51;66.76
14295;BME280;7231;59.370;18.016;2023-02-19T03:40:53;99867.53;;;-1.51;67.18
14295;BME280;7231;59.370;18.016;2023-02-19T03:43:26;99912.53;;;-1.30;66.96
14295;BME280;7231;59.370;18.016;2023-02-19T03:46:06;99911.72;;;-1.29;67.07
14295;BME280;7231;59.370;18.016;2023-02-19T03:48:40;99906.22;;;-1.35;66.72
14295;BME280;7231;59.370;18.016;2023-02-19T03:51:23;99920.41;;;-1.27;66.91
14295;BME280;7231;59.370;18.016;2023-02-19T03:54:00;99907.66;;;-1.25;67.10
14295;BME280;7231;59.370;18.016;2023-02-19T03:56:34;99910.94;;;-1.28;67.27
14295;BME280;7231;59.370;18.016;2023-02-19T03:59:10;99926.91;;;-1.19;67.25
14295;BME280;7231;59.370;18.016;2023-02-19T04:01:43;99913.16;;;-1.19;67.12
14295;BME280;7231;59.370;18.016;2023-02-19T04:04:15;99914.94;;;-1.18;67.03
14295;BME280;7231;59.370;18.016;2023-02-19T04:06:49;99932.41;;;-1.13;67.47
14295;BME280;7231;59.370;18.016;2023-02-19T04:09:21;99935.78;;;-1.14;67.12
14295;BME280;7231;59.370;18.016;2023-02-19T04:11:51;99931.44;;;-1.15;67.11
14295;BME280;7231;59.370;18.016;2023-02-19T04:14:22;99939.25;;;-1.13;66.94
14295;BME280;7231;59.370;18.016;2023-02-19T04:16:57;99939.34;;;-1.12;66.86
14295;BME280;7231;59.370;18.016;2023-02-19T04:19:29;99863.00;;;-1.55;66.84
14295;BME280;7231;59.370;18.016;2023-02-19T04:22:00;99873.75;;;-1.48;66.99
14295;BME280;7231;59.370;18.016;2023-02-19T04:24:32;99949.00;;;-1.08;67.27
14295;BME280;7231;59.370;18.016;2023-02-19T04:27:02;99874.19;;;-1.40;67.14
14295;BME280;7231;59.370;18.016;2023-02-19T04:29:31;99936.50;;;-1.02;67.10
14295;BME280;7231;59.370;18.016;2023-02-19T04:31:59;99936.31;;;-1.05;67.14
14295;BME280;7231;59.370;18.016;2023-02-19T04:34:29;99936.78;;;-0.97;67.15
14295;BME280;7231;59.370;18.016;2023-02-19T04:36:57;99950.72;;;-0.93;67.49
14295;BME280;7231;59.370;18.016;2023-02-19T04:39:25;99943.25;;;-0.89;67.24
14295;BME280;7231;59.370;18.016;2023-02-19T04:41:53;99927.19;;;-1.00;66.94
14295;BME280;7231;59.370;18.016;2023-02-19T04:44:21;99933.31;;;-0.83;67.14
14295;BME280;7231;59.370;18.016;2023-02-19T04:46:48;99942.91;;;-0.80;67.09
14295;BME280;7231;59.370;18.016;2023-02-19T04:49:16;99936.16;;;-0.78;67.13
14295;BME280;7231;59.370;18.016;2023-02-19T04:51:46;99944.88;;;-0.76;66.97
14295;BME280;7231;59.370;18.016;2023-02-19T04:54:13;99947.53;;;-0.75;66.45
14295;BME280;7231;59.370;18.016;2023-02-19T04:56:41;99945.75;;;-0.76;66.44
14295;BME280;7231;59.370;18.016;2023-02-19T04:59:09;99939.53;;;-0.79;66.04
14295;BME280;7231;59.370;18.016;2023-02-19T05:01:37;99901.03;;;-1.07;66.41
14295;BME280;7231;59.370;18.016;2023-02-19T05:04:05;99933.94;;;-0.87;65.79
14295;BME280;7231;59.370;18.016;2023-02-19T05:06:33;99921.25;;;-0.99;66.32
14295;BME280;7231;59.370;18.016;2023-02-19T05:09:02;99919.31;;;-1.03;66.09
14295;BME280;7231;59.370;18.016;2023-02-19T05:11:30;99941.22;;;-0.94;65.99
14295;BME280;7231;59.370;18.016;2023-02-19T05:13:58;99929.94;;;-0.96;66.13
14295;BME280;7231;59.370;18.016;2023-02-19T05:16:26;99940.25;;;-0.96;66.01
14295;BME280;7231;59.370;18.016;2023-02-19T05:18:55;99889.47;;;-1.28;66.01
14295;BME280;7231;59.370;18.016;2023-02-19T05:21:23;99940.94;;;-0.99;66.18
14295;BME280;7231;59.370;18.016;2023-02-19T05:23:51;99941.75;;;-1.00;66.26
14295;BME280;7231;59.370;18.016;2023-02-19T05:26:21;99940.78;;;-1.02;66.16
14295;BME280;7231;59.370;18.016;2023-02-19T05:28:51;99945.91;;;-1.02;66.13
14295;BME280;7231;59.370;18.016;2023-02-19T05:31:19;99932.06;;;-1.19;66.26
14295;BME280;7231;59.370;18.016;2023-02-19T05:33:48;99898.69;;;-1.32;66.23
14295;BME280;7231;59.370;18.016;2023-02-19T05:36:18;99938.00;;;-1.05;66.48
14295;BME280;7231;59.370;18.016;2023-02-19T05:38:47;99950.59;;;-1.10;66.17
14295;BME280;7231;59.370;18.016;2023-02-19T05:41:20;99946.16;;;-1.12;66.23
14295;BME280;7231;59.370;18.016;2023-02-19T05:43:49;99945.19;;;-1.14;66.36
14295;BME280;7231;59.370;18.016;2023-02-19T05:46:18;99958.13;;;-1.13;66.49
14295;BME280;7231;59.370;18.016;2023-02-19T05:48:48;99955.47;;;-1.14;66.21
14295;BME280;7231;59.370;18.016;2023-02-19T05:51:17;99898.09;;;-1.56;66.29
14295;BME280;7231;59.370;18.016;2023-02-19T05:53:45;99962.81;;;-1.20;66.29
14295;BME280;7231;59.370;18.016;2023-02-19T05:56:23;99966.09;;;-1.23;66.65
14295;BME280;7231;59.370;18.016;2023-02-19T05:58:53;99964.13;;;-1.27;66.50
14295;BME280;7231;59.370;18.016;2023-02-19T06:01:23;99953.47;;;-1.33;66.81
14295;BME280;7231;59.370;18.016;2023-02-19T06:03:52;99972.66;;;-1.28;66.34
14295;BME280;7231;59.370;18.016;2023-02-19T06:06:23;99970.88;;;-1.29;66.49
14295;BME280;7231;59.370;18.016;2023-02-19T06:08:52;99904.19;;;-1.69;66.62
14295;BME280;7231;59.370;18.016;2023-02-19T06:11:22;99978.41;;;-1.32;66.44
14295;BME280;7231;59.370;18.016;2023-02-19T06:13:50;99983.53;;;-1.32;66.57
14295;BME280;7231;59.370;18.016;2023-02-19T06:16:18;99989.38;;;-1.35;66.73
14295;BME280;7231;59.370;18.016;2023-02-19T06:18:48;99955.53;;;-1.55;66.72
14295;BME280;7231;59.370;18.016;2023-02-19T06:21:17;99979.34;;;-1.45;66.62
14295;BME280;7231;59.370;18.016;2023-02-19T06:23:46;99994.06;;;-1.42;66.99
14295;BME280;7231;59.370;18.016;2023-02-19T06:26:16;100001.78;;;-1.42;66.93
14295;BME280;7231;59.370;18.016;2023-02-19T06:28:47;99999.19;;;-1.42;66.87
14295;BME280;7231;59.370;18.016;2023-02-19T06:31:16;99981.53;;;-1.51;67.38
14295;BME280;7231;59.370;18.016;2023-02-19T06:33:44;99949.75;;;-1.66;66.88
14295;BME280;7231;59.370;18.016;2023-02-19T06:36:15;100003.53;;;-1.41;66.67
14295;BME280;7231;59.370;18.016;2023-02-19T06:38:43;99980.34;;;-1.56;66.91
14295;BME280;7231;59.370;18.016;2023-02-19T06:41:12;99966.03;;;-1.66;67.02
14295;BME280;7231;59.370;18.016;2023-02-19T06:43:40;99957.25;;;-1.69;67.06
14295;BME280;7231;59.370;18.016;2023-02-19T06:46:11;99995.06;;;-1.53;66.86
14295;BME280;7231;59.370;18.016;2023-02-19T06:48:40;100012.16;;;-1.41;66.98
14295;BME280;7231;59.370;18.016;2023-02-19T06:51:10;100020.84;;;-1.39;66.60
14295;BME280;7231;59.370;18.016;2023-02-19T06:53:38;99976.03;;;-1.70;66.56
14295;BME280;7231;59.370;18.016;2023-02-19T06:56:20;100013.03;;;-1.40;66.57
14295;BME280;7231;59.370;18.016;2023-02-19T06:58:49;100029.72;;;-1.34;66.58
14295;BME280;7231;59.370;18.016;2023-02-19T07:01:19;100029.91;;;-1.31;66.30
14295;BME280;7231;59.370;18.016;2023-02-19T07:03:47;100018.03;;;-1.28;66.58
14295;BME280;7231;59.370;18.016;2023-02-19T07:06:15;100035.34;;;-1.26;66.54
14295;BME280;7231;59.370;18.016;2023-02-19T07:08:43;100039.97;;;-1.20;66.78
14295;BME280;7231;59.370;18.016;2023-02-19T07:11:11;100029.28;;;-1.13;66.63
14295;BME280;7231;59.370;18.016;2023-02-19T07:13:39;100033.56;;;-0.99;67.38
14295;BME280;7231;59.370;18.016;2023-02-19T07:16:08;100038.03;;;-0.82;68.02
14295;BME280;7231;59.370;18.016;2023-02-19T07:18:39;100039.13;;;-0.63;68.17
14295;BME280;7231;59.370;18.016;2023-02-19T07:21:09;100035.06;;;-0.45;68.55
14295;BME280;7231;59.370;18.016;2023-02-19T07:23:38;100043.88;;;-0.27;68.20
14295;BME280;7231;59.370;18.016;2023-02-19T07:26:07;100036.31;;;-0.09;68.80
14295;BME280;7231;59.370;18.016;2023-02-19T07:28:36;100015.31;;;-0.01;68.94
14295;BME280;7231;59.370;18.016;2023-02-19T07:31:04;100001.88;;;0.05;68.47
14295;BME280;7231;59.370;18.016;2023-02-19T07:33:32;100031.59;;;0.29;68.37
14295;BME280;7231;59.370;18.016;2023-02-19T07:36:01;100039.88;;;0.55;67.76
14295;BME280;7231;59.370;18.016;2023-02-19T07:38:29;100037.31;;;0.71;67.94
14295;BME280;7231;59.370;18.016;2023-02-19T07:40:59;100046.94;;;0.90;67.65
14295;BME280;7231;59.370;18.016;2023-02-19T07:43:29;100055.41;;;1.04;66.83
14295;BME280;7231;59.370;18.016;2023-02-19T07:46:00;100053.31;;;1.13;66.04
14295;BME280;7231;59.370;18.016;2023-02-19T07:48:29;100030.41;;;1.03;65.05
14295;BME280;7231;59.370;18.016;2023-02-19T07:50:58;100043.78;;;1.12;65.13
14295;BME280;7231;59.370;18.016;2023-02-19T07:53:28;100071.53;;;1.16;64.44
14295;BME280;7231;59.370;18.016;2023-02-19T07:55:58;100034.91;;;1.07;64.95
14295;BME280;7231;59.370;18.016;2023-02-19T07:58:27;100051.94;;;1.36;64.65
14295;BME280;7231;59.370;18.016;2023-02-19T08:00:55;100057.69;;;1.64;63.44
14295;BME280;7231;59.370;18.016;2023-02-19T08:03:24;100055.69;;;1.92;63.82
14295;BME280;7231;59.370;18.016;2023-02-19T08:05:51;100055.78;;;2.30;63.63
14295;BME280;7231;59.370;18.016;2023-02-19T08:08:20;100043.88;;;2.51;63.09
14295;BME280;7231;59.370;18.016;2023-02-19T08:10:49;100064.44;;;2.48;62.21
14295;BME280;7231;59.370;18.016;2023-02-19T08:13:36;100011.00;;;2.31;62.84
14295;BME280;7231;59.370;18.016;2023-02-19T08:16:12;100043.78;;;2.86;62.21
14295;BME280;7231;59.370;18.016;2023-02-19T08:18:49;100060.16;;;3.24;62.29
14295;BME280;7231;59.370;18.016;2023-02-19T08:21:17;100016.25;;;3.08;61.24
14295;BME280;7231;59.370;18.016;2023-02-19T08:23:46;100057.56;;;3.43;60.63
14295;BME280;7231;59.370;18.016;2023-02-19T08:26:18;100064.28;;;3.59;60.68
14295;BME280;7231;59.370;18.016;2023-02-19T08:28:47;100056.44;;;3.57;59.93
14295;BME280;7231;59.370;18.016;2023-02-19T08:31:15;100058.91;;;3.54;58.79
14295;BME280;7231;59.370;18.016;2023-02-19T08:33:43;100052.50;;;3.46;59.05
14295;BME280;7231;59.370;18.016;2023-02-19T08:36:11;100068.34;;;3.33;58.63
14295;BME280;7231;59.370;18.016;2023-02-19T08:38:39;100060.91;;;3.21;58.85
14295;BME280;7231;59.370;18.016;2023-02-19T08:41:08;100069.28;;;3.35;58.59
14295;BME280;7231;59.370;18.016;2023-02-19T08:43:39;100075.16;;;3.50;57.66
14295;BME280;7231;59.370;18.016;2023-02-19T08:46:08;100079.25;;;3.45;57.28
14295;BME280;7231;59.370;18.016;2023-02-19T08:48:37;100054.81;;;3.59;58.05
14295;BME280;7231;59.370;18.016;2023-02-19T08:51:07;100076.03;;;3.91;57.94
14295;BME280;7231;59.370;18.016;2023-02-19T08:53:37;100073.50;;;3.92;57.29
14295;BME280;7231;59.370;18.016;2023-02-19T08:56:06;100072.81;;;4.17;57.68
14295;BME280;7231;59.370;18.016;2023-02-19T08:58:35;100078.13;;;4.41;57.67
14295;BME280;7231;59.370;18.016;2023-02-19T09:01:07;100079.44;;;4.52;56.11
14295;BME280;7231;59.370;18.016;2023-02-19T09:03:36;100087.59;;;4.62;56.23
14295;BME280;7231;59.370;18.016;2023-02-19T09:06:04;100079.56;;;4.55;54.92
14295;BME280;7231;59.370;18.016;2023-02-19T09:08:32;100082.53;;;4.44;55.15
14295;BME280;7231;59.370;18.016;2023-02-19T09:11:01;100097.34;;;4.46;54.58
14295;BME280;7231;59.370;18.016;2023-02-19T09:13:30;100096.72;;;4.52;55.31
14295;BME280;7231;59.370;18.016;2023-02-19T09:15:58;100095.44;;;4.63;54.53
14295;BME280;7231;59.370;18.016;2023-02-19T09:18:27;100103.19;;;4.84;54.39
14295;BME280;7231;59.370;18.016;2023-02-19T09:20:58;100095.88;;;4.96;54.09
14295;BME280;7231;59.370;18.016;2023-02-19T09:23:26;100095.28;;;5.27;54.19
14295;BME280;7231;59.370;18.016;2023-02-19T09:25:58;100103.09;;;5.51;54.14
14295;BME280;7231;59.370;18.016;2023-02-19T09:28:26;100089.75;;;5.42;52.08
14295;BME280;7231;59.370;18.016;2023-02-19T09:30:54;100110.81;;;5.49;51.70
14295;BME280;7231;59.370;18.016;2023-02-19T09:33:22;100044.47;;;5.11;51.15
14295;BME280;7231;59.370;18.016;2023-02-19T09:35:51;100099.72;;;5.53;51.78
14295;BME280;7231;59.370;18.016;2023-02-19T09:38:19;100109.09;;;5.74;51.89
14295;BME280;7231;59.370;18.016;2023-02-19T09:40:47;100104.19;;;5.58;49.64
14295;BME280;7231;59.370;18.016;2023-02-19T09:43:17;100096.66;;;5.17;50.02
14295;BME280;7231;59.370;18.016;2023-02-19T09:45:46;100108.59;;;5.36;51.28
14295;BME280;7231;59.370;18.016;2023-02-19T09:48:14;100093.56;;;5.51;51.05
14295;BME280;7231;59.370;18.016;2023-02-19T09:50:46;100045.22;;;5.33;49.98
14295;BME280;7231;59.370;18.016;2023-02-19T09:53:19;100093.41;;;5.71;50.02
14295;BME280;7231;59.370;18.016;2023-02-19T09:55:49;100118.69;;;5.75;49.62
14295;BME280;7231;59.370;18.016;2023-02-19T09:58:24;100121.00;;;5.67;49.14
14295;BME280;7231;59.370;18.016;2023-02-19T10:00:57;100123.56;;;5.66;49.43
14295;BME280;7231;59.370;18.016;2023-02-19T10:03:28;100100.03;;;5.63;48.90
14295;BME280;7231;59.370;18.016;2023-02-19T10:06:03;100121.28;;;5.99;49.95
14295;BME280;7231;59.370;18.016;2023-02-19T10:08:34;100124.78;;;5.99;48.88
14295;BME280;7231;59.370;18.016;2023-02-19T10:11:04;100135.94;;;6.21;49.69
14295;BME280;7231;59.370;18.016;2023-02-19T10:13:35;100117.06;;;6.28;48.37
14295;BME280;7231;59.370;18.016;2023-02-19T10:16:06;100117.91;;;6.01;48.60
14295;BME280;7231;59.370;18.016;2023-02-19T10:18:38;100098.53;;;5.93;48.47
14295;BME280;7231;59.370;18.016;2023-02-19T10:21:11;100124.38;;;5.88;48.16
14295;BME280;7231;59.370;18.016;2023-02-19T10:23:43;100149.19;;;6.03;48.10
14295;BME280;7231;59.370;18.016;2023-02-19T10:26:11;100144.00;;;6.03;47.50
14295;BME280;7231;59.370;18.016;2023-02-19T10:28:38;100160.88;;;5.90;47.51
14295;BME280;7231;59.370;18.016;2023-02-19T10:31:15;100152.25;;;5.91;47.16
14295;BME280;7231;59.370;18.016;2023-02-19T10:33:50;100170.91;;;5.57;47.73
14295;BME280;7231;59.370;18.016;2023-02-19T10:36:26;100175.41;;;5.61;47.84
14295;BME280;7231;59.370;18.016;2023-02-19T10:38:59;100168.47;;;5.62;47.87
14295;BME280;7231;59.370;18.016;2023-02-19T10:41:29;100167.34;;;5.31;47.25
14295;BME280;7231;59.370;18.016;2023-02-19T10:44:02;100179.72;;;5.14;47.64
14295;BME280;7231;59.370;18.016;2023-02-19T10:46:33;100022.44;;;4.33;48.08
14295;BME280;7231;59.370;18.016;2023-02-19T10:49:04;100168.28;;;5.33;47.84
14295;BME280;7231;59.370;18.016;2023-02-19T10:51:35;100166.38;;;5.51;47.33
14295;BME280;7231;59.370;18.016;2023-02-19T10:54:09;100159.50;;;5.53;47.42
14295;BME280;7231;59.370;18.016;2023-02-19T10:56:42;100133.50;;;5.53;47.47
14295;BME280;7231;59.370;18.016;2023-02-19T10:59:20;100144.69;;;5.75;47.13
14295;BME280;7231;59.370;18.016;2023-02-19T11:01:54;100161.97;;;6.21;47.93
14295;BME280;7231;59.370;18.016;2023-02-19T11:04:25;100162.28;;;6.30;46.88
14295;BME280;7231;59.370;18.016;2023-02-19T11:06:53;100160.88;;;6.39;46.92
14295;BME280;7231;59.370;18.016;2023-02-19T11:09:27;100156.22;;;6.31;45.99
14295;BME280;7231;59.370;18.016;2023-02-19T11:11:59;100162.25;;;6.04;46.29
14295;BME280;7231;59.370;18.016;2023-02-19T11:14:31;100155.59;;;6.12;47.44
14295;BME280;7231;59.370;18.016;2023-02-19T11:17:02;100153.94;;;6.14;46.41
14295;BME280;7231;59.370;18.016;2023-02-19T11:19:35;100151.22;;;6.11;46.50
14295;BME280;7231;59.370;18.016;2023-02-19T11:22:27;100136.91;;;6.24;46.24
14295;BME280;7231;59.370;18.016;2023-02-19T11:25:01;100162.63;;;6.40;46.09
14295;BME280;7231;59.370;18.016;2023-02-19T11:27:32;100102.13;;;6.22;46.75
14295;BME280;7231;59.370;18.016;2023-02-19T11:30:29;100182.88;;;6.74;45.45
14295;BME280;7231;59.370;18.016;2023-02-19T11:33:24;100149.00;;;6.47;45.00
14295;BME280;7231;59.370;18.016;2023-02-19T11:38:43;100176.59;;;6.95;45.91
14295;BME280;7231;59.370;18.016;2023-02-19T11:41:17;100181.94;;;6.99;45.09
14295;BME280;7231;59.370;18.016;2023-02-19T11:44:01;100183.56;;;6.96;44.98
14295;BME280;7231;59.370;18.016;2023-02-19T11:46:38;100180.66;;;6.87;44.81
14295;BME280;7231;59.370;18.016;2023-02-19T11:49:19;100188.59;;;6.90;43.72
14295;BME280;7231;59.370;18.016;2023-02-19T11:54:49;100186.63;;;6.82;44.32
14295;BME280;7231;59.370;18.016;2023-02-19T11:57:38;100184.44;;;6.96;44.45
14295;BME280;7231;59.370;18.016;2023-02-19T12:00:23;100151.38;;;6.67;43.93
14295;BME280;7231;59.370;18.016;2023-02-19T12:03:11;100196.25;;;7.12;43.89
14295;BME280;7231;59.370;18.016;2023-02-19T12:05:49;100197.75;;;7.32;44.32
14295;BME280;7231;59.370;18.016;2023-02-19T12:11:26;100166.94;;;7.19;43.70
14295;BME280;7231;59.370;18.016;2023-02-19T12:14:35;100180.25;;;7.28;43.23
14295;BME280;7231;59.370;18.016;2023-02-19T12:17:12;100180.75;;;7.16;43.29
14295;BME280;7231;59.370;18.016;2023-02-19T12:19:54;100179.72;;;6.84;43.36
14295;BME280;7231;59.370;18.016;2023-02-19T12:22:29;100161.53;;;6.59;42.60
14295;BME280;7231;59.370;18.016;2023-02-19T12:25:15;100158.06;;;6.33;41.87
14295;BME280;7231;59.370;18.016;2023-02-19T12:27:54;100154.34;;;6.27;42.18
14295;BME280;7231;59.370;18.016;2023-02-19T12:30:36;100187.47;;;6.56;42.35
14295;BME280;7231;59.370;18.016;2023-02-19T12:33:26;100216.00;;;6.78;42.64
14295;BME280;7231;59.370;18.016;2023-02-19T12:36:04;100154.31;;;6.77;42.77
14295;BME280;7231;59.370;18.016;2023-02-19T12:38:42;100228.50;;;7.42;42.11
14295;BME280;7231;59.370;18.016;2023-02-19T12:41:19;100186.38;;;7.59;41.99
14295;BME280;7231;59.370;18.016;2023-02-19T12:43:57;100195.72;;;7.82;41.01
14295;BME280;7231;59.370;18.016;2023-02-19T12:46:31;100197.44;;;7.81;40.84
14295;BME280;7231;59.370;18.016;2023-02-19T12:49:05;100223.44;;;7.77;40.26
14295;BME280;7231;59.370;18.016;2023-02-19T12:51:40;100182.44;;;7.43;40.64
14295;BME280;7231;59.370;18.016;2023-02-19T12:54:15;100184.84;;;7.37;39.52
14295;BME280;7231;59.370;18.016;2023-02-19T12:56:47;100226.91;;;7.47;40.36
14295;BME280;7231;59.370;18.016;2023-02-19T12:59:21;100216.66;;;7.83;40.31
14295;BME280;7231;59.370;18.016;2023-02-19T13:01:58;100169.84;;;7.90;40.55
14295;BME280;7231;59.370;18.016;2023-02-19T13:04:36;100207.44;;;8.28;40.17
14295;BME280;7231;59.370;18.016;2023-02-19T13:07:12;100200.38;;;8.55;39.98
14295;BME280;7231;59.370;18.016;2023-02-19T13:09:45;100215.50;;;8.68;39.71
14295;BME280;7231;59.370;18.016;2023-02-19T13:12:20;100192.00;;;8.68;39.65
14295;BME280;7231;59.370;18.016;2023-02-19T13:14:54;100197.16;;;8.65;39.19
14295;BME280;7231;59.370;18.016;2023-02-19T13:17:28;100218.53;;;8.84;39.15
14295;BME280;7231;59.370;18.016;2023-02-19T13:20:03;100210.06;;;8.94;39.25
14295;BME280;7231;59.370;18.016;2023-02-19T13:22:39;100216.78;;;8.84;38.79
14295;BME280;7231;59.370;18.016;2023-02-19T13:25:41;100216.16;;;8.94;38.67
14295;BME280;7231;59.370;18.016;2023-02-19T13:28:23;100103.63;;;8.19;38.57
14295;BME280;7231;59.370;18.016;2023-02-19T13:31:11;100233.91;;;9.07;38.57
14295;BME280;7231;59.370;18.016;2023-02-19T13:33:55;100228.50;;;9.36;38.44
14295;BME280;7231;59.370;18.016;2023-02-19T13:36:27;100236.03;;;9.22;37.86
14295;BME280;7231;59.370;18.016;2023-02-19T13:38:56;100182.19;;;8.94;38.08